sensor_id;sensor_type;location;lat;lon;timestamp;temperature;humidity
8824;DHT22;4448;50.904;4.694;2023-02-28T00:00:19;3.70;99.90
8824;DHT22;4448;50.904;4.694;2023-02-28T00:02:46;3.70;99.90
8824;DHT22;4448;50.904;4.694;2023-02-28T00:05:14;3.60;99.90
8824;DHT22;4448;50.904;4.694;2023-02-28T00:07:40;3.60;99.90
8824;DHT22;4448;50.904;4.694;2023-02-28T00:10:10;3.60;99.90
8824;DHT22;4448;50.904;4.694;2023-02-28T00:12:37;3.60;99.90
8824;DHT22;4448;50.904;4.694;2023-02-28T00:15:05;3.60;99.90
8824;DHT22;4448;50.904;4.694;2023-02-28T00:17:31;3.60;99.90
8824;DHT22;4448;50.904;4.694;2023-02-28T00:19:57;3.60;99.90
8824;DHT22;4448;50.904;4.694;2023-02-28T00:22:30;3.50;99.90
8824;DHT22;4448;50.904;4.694;2023-02-28T00:24:56;3.60;99.90
8824;DHT22;4448;50.904;4.694;2023-02-28T00:27:21;3.50;99.90
8824;DHT22;4448;50.904;4.694;2023-02-28T00:29:47;3.60;99.90
8824;DHT22;4448;50.904;4.694;2023-02-28T00:32:13;3.50;99.90
8824;DHT22;4448;50.904;4.694;2023-02-28T00:34:39;3.50;99.90
8824;DHT22;4448;50.904;4.694;2023-02-28T00:37:09;3.50;99.90
8824;DHT22;4448;50.904;4.694;2023-02-28T00:39:38;3.50;99.90
8824;DHT22;4448;50.904;4.694;2023-02-28T00:42:04;3.50;99.90
8824;DHT22;4448;50.904;4.694;2023-02-28T00:44:31;3.50;99.90
8824;DHT22;4448;50.904;4.694;2023-02-28T00:46:57;3.50;99.90
8824;DHT22;4448;50.904;4.694;2023-02-28T00:49:24;3.40;99.90
8824;DHT22;4448;50.904;4.694;2023-02-28T00:51:50;3.50;99.90
8824;DHT22;4448;50.904;4.694;2023-02-28T00:54:16;3.40;99.90
8824;DHT22;4448;50.904;4.694;2023-02-28T00:56:42;3.40;99.90
8824;DHT22;4448;50.904;4.694;2023-02-28T00:59:08;3.40;99.90
8824;DHT22;4448;50.904;4.694;2023-02-28T01:01:34;3.40;99.90
8824;DHT22;4448;50.904;4.694;2023-02-28T01:04:00;3.40;99.90
8824;DHT22;4448;50.904;4.694;2023-02-28T01:06:26;3.40;99.90
8824;DHT22;4448;50.904;4.694;2023-02-28T01:08:52;3.40;99.90
8824;DHT22;4448;50.904;4.694;2023-02-28T01:11:18;3.40;99.90
8824;DHT22;4448;50.904;4.694;2023-02-28T01:13:45;3.40;99.90
8824;DHT22;4448;50.904;4.694;2023-02-28T01:16:11;3.40;99.90
8824;DHT22;4448;50.904;4.694;2023-02-28T01:18:37;3.40;99.90
8824;DHT22;4448;50.904;4.694;2023-02-28T01:21:08;3.40;99.90
8824;DHT22;4448;50.904;4.694;2023-02-28T01:23:34;3.40;99.90
8824;DHT22;4448;50.904;4.694;2023-02-28T01:26:05;3.30;99.90
8824;DHT22;4448;50.904;4.694;2023-02-28T01:28:31;3.30;99.90
8824;DHT22;4448;50.904;4.694;2023-02-28T01:30:56;3.30;99.90
8824;DHT22;4448;50.904;4.694;2023-02-28T01:33:22;3.30;99.90
8824;DHT22;4448;50.904;4.694;2023-02-28T01:35:47;3.30;99.90
8824;DHT22;4448;50.904;4.694;2023-02-28T01:38:13;3.30;99.90
8824;DHT22;4448;50.904;4.694;2023-02-28T01:40:39;3.30;99.90
8824;DHT22;4448;50.904;4.694;2023-02-28T01:46:18;3.20;99.90
8824;DHT22;4448;50.904;4.694;2023-02-28T01:48:51;3.20;99.90
8824;DHT22;4448;50.904;4.694;2023-02-28T01:51:33;3.20;99.90
8824;DHT22;4448;50.904;4.694;2023-02-28T01:54:03;3.20;99.90
8824;DHT22;4448;50.904;4.694;2023-02-28T01:56:33;3.20;99.90
8824;DHT22;4448;50.904;4.694;2023-02-28T01:59:00;3.20;99.90
8824;DHT22;4448;50.904;4.694;2023-02-28T02:01:27;3.20;99.90
8824;DHT22;4448;50.904;4.694;2023-02-28T02:03:57;3.10;99.90
8824;DHT22;4448;50.904;4.694;2023-02-28T02:06:27;3.20;99.90
8824;DHT22;4448;50.904;4.694;2023-02-28T02:08:54;3.10;99.90
8824;DHT22;4448;50.904;4.694;2023-02-28T02:11:22;3.10;99.90
8824;DHT22;4448;50.904;4.694;2023-02-28T02:16:22;3.10;99.90
8824;DHT22;4448;50.904;4.694;2023-02-28T02:19:19;3.10;99.90
8824;DHT22;4448;50.904;4.694;2023-02-28T02:25:11;3.00;99.90
8824;DHT22;4448;50.904;4.694;2023-02-28T02:30:39;3.00;99.90
8824;DHT22;4448;50.904;4.694;2023-02-28T02:36:13;3.00;99.90
8824;DHT22;4448;50.904;4.694;2023-02-28T02:38:44;3.00;99.90
8824;DHT22;4448;50.904;4.694;2023-02-28T02:41:24;3.10;99.90
8824;DHT22;4448;50.904;4.694;2023-02-28T02:46:34;3.00;99.90
8824;DHT22;4448;50.904;4.694;2023-02-28T02:49:05;3.00;99.90
8824;DHT22;4448;50.904;4.694;2023-02-28T02:51:32;3.00;99.90
8824;DHT22;4448;50.904;4.694;2023-02-28T02:54:05;3.00;99.90
8824;DHT22;4448;50.904;4.694;2023-02-28T02:56:33;3.00;99.90
8824;DHT22;4448;50.904;4.694;2023-02-28T02:59:02;3.00;99.90
8824;DHT22;4448;50.904;4.694;2023-02-28T03:01:30;3.00;99.90
8824;DHT22;4448;50.904;4.694;2023-02-28T03:03:59;3.00;99.90
8824;DHT22;4448;50.904;4.694;2023-02-28T03:06:27;3.00;99.90
8824;DHT22;4448;50.904;4.694;2023-02-28T03:08:53;3.00;99.90
8824;DHT22;4448;50.904;4.694;2023-02-28T03:11:19;3.00;99.90
8824;DHT22;4448;50.904;4.694;2023-02-28T03:13:59;3.00;99.90
8824;DHT22;4448;50.904;4.694;2023-02-28T03:24:07;2.90;99.90
8824;DHT22;4448;50.904;4.694;2023-02-28T03:26:39;2.90;99.90
8824;DHT22;4448;50.904;4.694;2023-02-28T03:29:40;2.90;99.90
8824;DHT22;4448;50.904;4.694;2023-02-28T03:32:18;2.90;99.90
8824;DHT22;4448;50.904;4.694;2023-02-28T03:34:55;2.90;99.90
8824;DHT22;4448;50.904;4.694;2023-02-28T03:37:22;2.90;99.90
8824;DHT22;4448;50.904;4.694;2023-02-28T03:39:55;2.90;99.90
8824;DHT22;4448;50.904;4.694;2023-02-28T03:42:25;2.90;99.90
8824;DHT22;4448;50.904;4.694;2023-02-28T03:45:02;2.80;99.90
8824;DHT22;4448;50.904;4.694;2023-02-28T03:47:41;2.80;99.90
8824;DHT22;4448;50.904;4.694;2023-02-28T03:50:14;2.80;99.90
8824;DHT22;4448;50.904;4.694;2023-02-28T03:52:47;2.80;99.90
8824;DHT22;4448;50.904;4.694;2023-02-28T03:55:16;2.80;99.90
8824;DHT22;4448;50.904;4.694;2023-02-28T04:00:41;2.80;99.90
8824;DHT22;4448;50.904;4.694;2023-02-28T04:03:09;2.80;99.90
8824;DHT22;4448;50.904;4.694;2023-02-28T04:05:46;2.80;99.90
8824;DHT22;4448;50.904;4.694;2023-02-28T04:08:13;2.80;99.90
8824;DHT22;4448;50.904;4.694;2023-02-28T04:10:38;2.80;99.90
8824;DHT22;4448;50.904;4.694;2023-02-28T04:13:04;2.80;99.90
8824;DHT22;4448;50.904;4.694;2023-02-28T04:15:30;2.80;99.90
8824;DHT22;4448;50.904;4.694;2023-02-28T04:17:57;2.80;99.90
8824;DHT22;4448;50.904;4.694;2023-02-28T04:20:22;2.80;99.90
8824;DHT22;4448;50.904;4.694;2023-02-28T04:22:48;2.80;99.90
8824;DHT22;4448;50.904;4.694;2023-02-28T04:25:14;2.90;99.90
8824;DHT22;4448;50.904;4.694;2023-02-28T04:27:39;2.90;99.90
8824;DHT22;4448;50.904;4.694;2023-02-28T04:30:06;2.90;99.90
8824;DHT22;4448;50.904;4.694;2023-02-28T04:32:31;2.90;99.90
8824;DHT22;4448;50.904;4.694;2023-02-28T04:34:57;2.90;99.90
8824;DHT22;4448;50.904;4.694;2023-02-28T04:37:23;2.90;99.90
8824;DHT22;4448;50.904;4.694;2023-02-28T04:39:53;2.80;99.90
8824;DHT22;4448;50.904;4.694;2023-02-28T04:42:19;2.80;99.90
8824;DHT22;4448;50.904;4.694;2023-02-28T04:44:44;2.80;99.90
8824;DHT22;4448;50.904;4.694;2023-02-28T04:47:10;2.90;99.90
8824;DHT22;4448;50.904;4.694;2023-02-28T04:49:35;2.80;99.90
8824;DHT22;4448;50.904;4.694;2023-02-28T04:52:01;2.80;99.90
8824;DHT22;4448;50.904;4.694;2023-02-28T04:54:27;2.80;99.90
8824;DHT22;4448;50.904;4.694;2023-02-28T04:56:53;2.80;99.90
8824;DHT22;4448;50.904;4.694;2023-02-28T04:59:20;3.00;99.90
8824;DHT22;4448;50.904;4.694;2023-02-28T05:01:47;2.80;99.90
8824;DHT22;4448;50.904;4.694;2023-02-28T05:04:13;2.80;99.90
8824;DHT22;4448;50.904;4.694;2023-02-28T05:06:39;2.80;99.90
8824;DHT22;4448;50.904;4.694;2023-02-28T05:09:05;2.80;99.90
8824;DHT22;4448;50.904;4.694;2023-02-28T05:11:32;2.80;99.90
8824;DHT22;4448;50.904;4.694;2023-02-28T05:14:09;2.80;99.90
8824;DHT22;4448;50.904;4.694;2023-02-28T05:16:36;2.80;99.90
8824;DHT22;4448;50.904;4.694;2023-02-28T05:19:01;2.80;99.90
8824;DHT22;4448;50.904;4.694;2023-02-28T05:23:53;3.40;99.90
8824;DHT22;4448;50.904;4.694;2023-02-28T05:26:19;2.70;99.90
8824;DHT22;4448;50.904;4.694;2023-02-28T05:28:45;2.70;99.90
8824;DHT22;4448;50.904;4.694;2023-02-28T05:31:11;2.80;99.90
8824;DHT22;4448;50.904;4.694;2023-02-28T05:33:37;2.80;99.90
8824;DHT22;4448;50.904;4.694;2023-02-28T05:36:04;2.80;99.90
8824;DHT22;4448;50.904;4.694;2023-02-28T05:38:30;2.80;99.90
8824;DHT22;4448;50.904;4.694;2023-02-28T05:40:55;2.80;99.90
8824;DHT22;4448;50.904;4.694;2023-02-28T05:43:22;2.80;99.90
8824;DHT22;4448;50.904;4.694;2023-02-28T05:45:47;2.90;99.90
8824;DHT22;4448;50.904;4.694;2023-02-28T05:48:13;2.80;99.90
8824;DHT22;4448;50.904;4.694;2023-02-28T05:50:39;2.80;99.90
8824;DHT22;4448;50.904;4.694;2023-02-28T05:53:05;2.90;99.90
8824;DHT22;4448;50.904;4.694;2023-02-28T05:55:30;2.90;99.90
8824;DHT22;4448;50.904;4.694;2023-02-28T05:57:56;2.90;99.90
8824;DHT22;4448;50.904;4.694;2023-02-28T06:00:22;2.90;99.90
8824;DHT22;4448;50.904;4.694;2023-02-28T06:02:47;2.90;99.90
8824;DHT22;4448;50.904;4.694;2023-02-28T06:05:16;2.80;99.90
8824;DHT22;4448;50.904;4.694;2023-02-28T06:07:42;2.90;99.90
8824;DHT22;4448;50.904;4.694;2023-02-28T06:10:10;2.80;99.90
8824;DHT22;4448;50.904;4.694;2023-02-28T06:12:36;2.90;99.90
8824;DHT22;4448;50.904;4.694;2023-02-28T06:15:02;2.80;99.90
8824;DHT22;4448;50.904;4.694;2023-02-28T06:17:27;2.90;99.90
8824;DHT22;4448;50.904;4.694;2023-02-28T06:19:53;2.80;99.90
8824;DHT22;4448;50.904;4.694;2023-02-28T06:22:18;2.90;99.90
8824;DHT22;4448;50.904;4.694;2023-02-28T06:24:44;2.90;99.90
8824;DHT22;4448;50.904;4.694;2023-02-28T06:27:10;2.80;99.90
8824;DHT22;4448;50.904;4.694;2023-02-28T06:29:35;2.80;99.90
8824;DHT22;4448;50.904;4.694;2023-02-28T06:32:02;3.00;99.90
8824;DHT22;4448;50.904;4.694;2023-02-28T06:34:28;2.80;99.90
8824;DHT22;4448;50.904;4.694;2023-02-28T06:36:53;2.80;99.90
8824;DHT22;4448;50.904;4.694;2023-02-28T06:39:19;2.80;99.90
8824;DHT22;4448;50.904;4.694;2023-02-28T06:41:45;2.80;99.90
8824;DHT22;4448;50.904;4.694;2023-02-28T06:44:17;2.80;99.90
8824;DHT22;4448;50.904;4.694;2023-02-28T06:46:44;3.30;99.90
8824;DHT22;4448;50.904;4.694;2023-02-28T06:49:10;2.70;99.90
8824;DHT22;4448;50.904;4.694;2023-02-28T06:51:38;2.80;99.90
8824;DHT22;4448;50.904;4.694;2023-02-28T06:54:05;2.70;99.90
8824;DHT22;4448;50.904;4.694;2023-02-28T06:56:34;2.80;99.90
8824;DHT22;4448;50.904;4.694;2023-02-28T06:59:00;2.70;99.90
8824;DHT22;4448;50.904;4.694;2023-02-28T07:01:25;2.80;99.90
8824;DHT22;4448;50.904;4.694;2023-02-28T07:03:53;2.80;99.90
8824;DHT22;4448;50.904;4.694;2023-02-28T07:06:23;2.80;99.90
8824;DHT22;4448;50.904;4.694;2023-02-28T07:08:50;2.80;99.90
8824;DHT22;4448;50.904;4.694;2023-02-28T07:11:16;2.80;99.90
8824;DHT22;4448;50.904;4.694;2023-02-28T07:13:42;2.80;99.90
8824;DHT22;4448;50.904;4.694;2023-02-28T07:16:09;2.80;99.90
8824;DHT22;4448;50.904;4.694;2023-02-28T07:18:36;2.80;99.90
8824;DHT22;4448;50.904;4.694;2023-02-28T07:21:04;2.80;99.90
8824;DHT22;4448;50.904;4.694;2023-02-28T07:23:30;2.80;99.90
8824;DHT22;4448;50.904;4.694;2023-02-28T07:25:55;2.80;99.90
8824;DHT22;4448;50.904;4.694;2023-02-28T07:28:21;2.80;99.90
8824;DHT22;4448;50.904;4.694;2023-02-28T07:30:46;2.80;99.90
8824;DHT22;4448;50.904;4.694;2023-02-28T07:33:13;2.80;99.90
8824;DHT22;4448;50.904;4.694;2023-02-28T07:35:39;2.80;99.90
8824;DHT22;4448;50.904;4.694;2023-02-28T07:38:05;2.90;99.90
8824;DHT22;4448;50.904;4.694;2023-02-28T07:40:33;2.90;99.90
8824;DHT22;4448;50.904;4.694;2023-02-28T07:43:00;2.90;99.90
8824;DHT22;4448;50.904;4.694;2023-02-28T07:45:26;2.90;99.90
8824;DHT22;4448;50.904;4.694;2023-02-28T07:47:54;2.90;99.90
8824;DHT22;4448;50.904;4.694;2023-02-28T07:50:20;2.90;99.90
8824;DHT22;4448;50.904;4.694;2023-02-28T07:52:46;3.00;99.90
8824;DHT22;4448;50.904;4.694;2023-02-28T07:55:12;3.00;99.90
8824;DHT22;4448;50.904;4.694;2023-02-28T07:57:40;3.00;99.90
8824;DHT22;4448;50.904;4.694;2023-02-28T08:00:08;3.00;99.90
8824;DHT22;4448;50.904;4.694;2023-02-28T08:02:38;3.10;99.90
8824;DHT22;4448;50.904;4.694;2023-02-28T08:05:04;3.10;99.90
8824;DHT22;4448;50.904;4.694;2023-02-28T08:07:30;3.10;99.90
8824;DHT22;4448;50.904;4.694;2023-02-28T08:09:56;3.20;99.90
8824;DHT22;4448;50.904;4.694;2023-02-28T08:12:22;3.10;99.90
8824;DHT22;4448;50.904;4.694;2023-02-28T08:14:47;3.20;99.90
8824;DHT22;4448;50.904;4.694;2023-02-28T08:17:13;3.20;99.90
8824;DHT22;4448;50.904;4.694;2023-02-28T08:19:38;3.30;99.90
8824;DHT22;4448;50.904;4.694;2023-02-28T08:22:04;3.30;99.90
8824;DHT22;4448;50.904;4.694;2023-02-28T08:24:30;3.30;99.90
8824;DHT22;4448;50.904;4.694;2023-02-28T08:26:56;3.40;99.90
8824;DHT22;4448;50.904;4.694;2023-02-28T08:29:21;3.40;99.90
8824;DHT22;4448;50.904;4.694;2023-02-28T08:31:47;3.50;99.90
8824;DHT22;4448;50.904;4.694;2023-02-28T08:34:15;3.50;99.90
8824;DHT22;4448;50.904;4.694;2023-02-28T08:36:41;3.60;99.90
8824;DHT22;4448;50.904;4.694;2023-02-28T08:39:09;3.60;99.90
8824;DHT22;4448;50.904;4.694;2023-02-28T08:41:35;3.70;99.90
8824;DHT22;4448;50.904;4.694;2023-02-28T08:44:00;3.80;99.90
8824;DHT22;4448;50.904;4.694;2023-02-28T08:46:26;3.90;99.90
8824;DHT22;4448;50.904;4.694;2023-02-28T08:48:53;4.00;99.90
8824;DHT22;4448;50.904;4.694;2023-02-28T08:51:20;4.00;99.90
8824;DHT22;4448;50.904;4.694;2023-02-28T08:53:52;4.00;99.90
8824;DHT22;4448;50.904;4.694;2023-02-28T08:56:19;4.00;99.90
8824;DHT22;4448;50.904;4.694;2023-02-28T08:58:45;4.10;99.90
8824;DHT22;4448;50.904;4.694;2023-02-28T09:01:17;4.10;99.90
8824;DHT22;4448;50.904;4.694;2023-02-28T09:03:46;4.10;99.90
8824;DHT22;4448;50.904;4.694;2023-02-28T09:06:12;4.10;99.90
8824;DHT22;4448;50.904;4.694;2023-02-28T09:08:38;4.10;99.90
8824;DHT22;4448;50.904;4.694;2023-02-28T09:11:05;4.20;99.90
8824;DHT22;4448;50.904;4.694;2023-02-28T09:13:31;4.20;99.90
8824;DHT22;4448;50.904;4.694;2023-02-28T09:15:58;4.20;99.90
8824;DHT22;4448;50.904;4.694;2023-02-28T09:18:25;4.30;99.90
8824;DHT22;4448;50.904;4.694;2023-02-28T09:20:51;4.40;99.90
8824;DHT22;4448;50.904;4.694;2023-02-28T09:23:18;4.40;99.90
8824;DHT22;4448;50.904;4.694;2023-02-28T09:25:49;4.50;99.90
8824;DHT22;4448;50.904;4.694;2023-02-28T09:28:16;4.50;99.90
8824;DHT22;4448;50.904;4.694;2023-02-28T09:30:44;4.60;99.90
8824;DHT22;4448;50.904;4.694;2023-02-28T09:33:10;4.60;99.90
8824;DHT22;4448;50.904;4.694;2023-02-28T09:35:36;4.70;99.90
8824;DHT22;4448;50.904;4.694;2023-02-28T09:38:03;4.70;99.90
8824;DHT22;4448;50.904;4.694;2023-02-28T09:40:29;4.70;99.90
8824;DHT22;4448;50.904;4.694;2023-02-28T09:42:57;4.80;99.90
8824;DHT22;4448;50.904;4.694;2023-02-28T09:45:32;4.80;99.90
8824;DHT22;4448;50.904;4.694;2023-02-28T09:48:01;4.90;99.90
8824;DHT22;4448;50.904;4.694;2023-02-28T09:52:59;5.00;99.90
8824;DHT22;4448;50.904;4.694;2023-02-28T09:55:39;4.90;99.90
8824;DHT22;4448;50.904;4.694;2023-02-28T10:01:25;5.00;99.90
8824;DHT22;4448;50.904;4.694;2023-02-28T10:06:26;5.20;99.90
8824;DHT22;4448;50.904;4.694;2023-02-28T10:09:24;5.30;99.90
8824;DHT22;4448;50.904;4.694;2023-02-28T10:11:52;5.30;99.90
8824;DHT22;4448;50.904;4.694;2023-02-28T10:14:22;5.40;99.90
8824;DHT22;4448;50.904;4.694;2023-02-28T10:16:58;5.50;99.90
8824;DHT22;4448;50.904;4.694;2023-02-28T10:25:27;5.70;99.90
8824;DHT22;4448;50.904;4.694;2023-02-28T10:27:59;5.70;99.90
8824;DHT22;4448;50.904;4.694;2023-02-28T10:30:26;5.80;99.90
8824;DHT22;4448;50.904;4.694;2023-02-28T10:32:52;5.80;99.90
8824;DHT22;4448;50.904;4.694;2023-02-28T10:35:23;5.90;99.90
8824;DHT22;4448;50.904;4.694;2023-02-28T10:38:00;6.00;99.90
8824;DHT22;4448;50.904;4.694;2023-02-28T10:40:33;6.00;99.90
8824;DHT22;4448;50.904;4.694;2023-02-28T10:43:11;6.10;99.90
8824;DHT22;4448;50.904;4.694;2023-02-28T10:48:38;6.10;99.90
8824;DHT22;4448;50.904;4.694;2023-02-28T10:51:07;6.20;99.90
8824;DHT22;4448;50.904;4.694;2023-02-28T11:01:19;6.40;99.90
8824;DHT22;4448;50.904;4.694;2023-02-28T11:03:45;6.50;99.90
8824;DHT22;4448;50.904;4.694;2023-02-28T11:06:26;6.50;99.90
8824;DHT22;4448;50.904;4.694;2023-02-28T11:08:57;6.60;99.90
8824;DHT22;4448;50.904;4.694;2023-02-28T11:11:26;6.60;99.90
8824;DHT22;4448;50.904;4.694;2023-02-28T11:13:58;6.60;99.90
8824;DHT22;4448;50.904;4.694;2023-02-28T11:16:36;6.60;99.90
8824;DHT22;4448;50.904;4.694;2023-02-28T11:19:04;6.60;99.90
8824;DHT22;4448;50.904;4.694;2023-02-28T11:21:34;6.60;99.90
8824;DHT22;4448;50.904;4.694;2023-02-28T11:24:05;6.60;99.90
8824;DHT22;4448;50.904;4.694;2023-02-28T11:26:41;6.60;99.90
8824;DHT22;4448;50.904;4.694;2023-02-28T11:29:18;6.70;99.90
8824;DHT22;4448;50.904;4.694;2023-02-28T11:34:29;6.90;99.90
8824;DHT22;4448;50.904;4.694;2023-02-28T11:36:58;6.90;99.90
8824;DHT22;4448;50.904;4.694;2023-02-28T11:39:26;7.10;99.90
8824;DHT22;4448;50.904;4.694;2023-02-28T11:55:02;7.50;99.90
8824;DHT22;4448;50.904;4.694;2023-02-28T11:57:50;7.60;99.90
8824;DHT22;4448;50.904;4.694;2023-02-28T12:03:22;7.60;99.90
8824;DHT22;4448;50.904;4.694;2023-02-28T12:11:48;7.70;99.90
8824;DHT22;4448;50.904;4.694;2023-02-28T12:17:12;7.70;99.90
8824;DHT22;4448;50.904;4.694;2023-02-28T12:22:20;7.80;99.90
8824;DHT22;4448;50.904;4.694;2023-02-28T12:25:22;7.90;99.90
8824;DHT22;4448;50.904;4.694;2023-02-28T12:27:51;7.90;99.90
8824;DHT22;4448;50.904;4.694;2023-02-28T12:30:25;8.00;99.90
8824;DHT22;4448;50.904;4.694;2023-02-28T12:35:33;8.10;99.90
8824;DHT22;4448;50.904;4.694;2023-02-28T12:38:13;8.20;99.90
8824;DHT22;4448;50.904;4.694;2023-02-28T12:43:49;8.20;99.90
8824;DHT22;4448;50.904;4.694;2023-02-28T12:46:44;8.20;99.90
8824;DHT22;4448;50.904;4.694;2023-02-28T12:49:23;8.20;99.90
8824;DHT22;4448;50.904;4.694;2023-02-28T12:51:51;8.20;99.90
8824;DHT22;4448;50.904;4.694;2023-02-28T12:54:28;8.20;99.90
8824;DHT22;4448;50.904;4.694;2023-02-28T12:57:13;8.20;99.90
8824;DHT22;4448;50.904;4.694;2023-02-28T13:00:03;8.20;99.90
8824;DHT22;4448;50.904;4.694;2023-02-28T13:05:24;8.20;99.90
8824;DHT22;4448;50.904;4.694;2023-02-28T13:10:50;8.10;99.90
8824;DHT22;4448;50.904;4.694;2023-02-28T13:13:27;8.00;99.90
8824;DHT22;4448;50.904;4.694;2023-02-28T13:16:01;8.00;99.90
8824;DHT22;4448;50.904;4.694;2023-02-28T13:18:36;8.00;99.90
8824;DHT22;4448;50.904;4.694;2023-02-28T13:21:04;7.90;99.90
8824;DHT22;4448;50.904;4.694;2023-02-28T13:26:05;7.90;99.90
8824;DHT22;4448;50.904;4.694;2023-02-28T13:29:04;7.90;99.90
8824;DHT22;4448;50.904;4.694;2023-02-28T13:34:37;7.80;99.90
8824;DHT22;4448;50.904;4.694;2023-02-28T13:40:30;7.50;99.90
8824;DHT22;4448;50.904;4.694;2023-02-28T13:43:02;7.80;99.90
8824;DHT22;4448;50.904;4.694;2023-02-28T13:45:29;7.70;99.90
8824;DHT22;4448;50.904;4.694;2023-02-28T13:48:01;7.90;99.90
8824;DHT22;4448;50.904;4.694;2023-02-28T13:53:34;7.70;99.90
8824;DHT22;4448;50.904;4.694;2023-02-28T13:56:20;7.70;99.90
8824;DHT22;4448;50.904;4.694;2023-02-28T14:01:53;7.50;99.90
8824;DHT22;4448;50.904;4.694;2023-02-28T14:07:23;7.50;99.90
8824;DHT22;4448;50.904;4.694;2023-02-28T14:09:59;7.60;99.90
8824;DHT22;4448;50.904;4.694;2023-02-28T14:18:31;7.50;99.90
8824;DHT22;4448;50.904;4.694;2023-02-28T14:21:21;7.50;99.90
8824;DHT22;4448;50.904;4.694;2023-02-28T14:27:00;7.40;99.90
8824;DHT22;4448;50.904;4.694;2023-02-28T14:37:41;7.40;99.90
8824;DHT22;4448;50.904;4.694;2023-02-28T14:40:27;7.40;99.90
8824;DHT22;4448;50.904;4.694;2023-02-28T14:43:00;7.40;99.90
8824;DHT22;4448;50.904;4.694;2023-02-28T14:45:29;7.40;99.90
8824;DHT22;4448;50.904;4.694;2023-02-28T14:47:57;7.50;99.90
8824;DHT22;4448;50.904;4.694;2023-02-28T14:50:31;7.50;99.90
8824;DHT22;4448;50.904;4.694;2023-02-28T14:52:58;7.50;99.90
8824;DHT22;4448;50.904;4.694;2023-02-28T14:55:28;7.50;99.90
8824;DHT22;4448;50.904;4.694;2023-02-28T14:57:59;7.50;99.90
8824;DHT22;4448;50.904;4.694;2023-02-28T15:00:33;7.50;99.90
8824;DHT22;4448;50.904;4.694;2023-02-28T15:03:11;7.50;99.90
8824;DHT22;4448;50.904;4.694;2023-02-28T15:05:47;7.60;99.90
8824;DHT22;4448;50.904;4.694;2023-02-28T15:08:16;7.60;99.90
8824;DHT22;4448;50.904;4.694;2023-02-28T15:10:54;7.60;99.90
8824;DHT22;4448;50.904;4.694;2023-02-28T15:13:21;7.50;99.90
8824;DHT22;4448;50.904;4.694;2023-02-28T15:16:01;7.50;99.90
8824;DHT22;4448;50.904;4.694;2023-02-28T15:21:38;7.40;99.90
8824;DHT22;4448;50.904;4.694;2023-02-28T15:26:39;7.30;99.90
8824;DHT22;4448;50.904;4.694;2023-02-28T15:29:14;7.30;99.90
8824;DHT22;4448;50.904;4.694;2023-02-28T15:31:46;7.20;99.90
8824;DHT22;4448;50.904;4.694;2023-02-28T15:34:25;7.20;99.90
8824;DHT22;4448;50.904;4.694;2023-02-28T15:36:52;7.10;99.90
8824;DHT22;4448;50.904;4.694;2023-02-28T15:39:24;7.10;99.90
8824;DHT22;4448;50.904;4.694;2023-02-28T15:41:50;7.10;99.90
8824;DHT22;4448;50.904;4.694;2023-02-28T15:47:19;7.00;99.90
8824;DHT22;4448;50.904;4.694;2023-02-28T15:49:54;7.00;99.90
8824;DHT22;4448;50.904;4.694;2023-02-28T15:52:44;6.90;99.90
8824;DHT22;4448;50.904;4.694;2023-02-28T15:55:19;6.90;99.90
8824;DHT22;4448;50.904;4.694;2023-02-28T15:57:48;6.80;99.90
8824;DHT22;4448;50.904;4.694;2023-02-28T16:00:19;6.80;99.90
8824;DHT22;4448;50.904;4.694;2023-02-28T16:02:45;6.70;99.90
8824;DHT22;4448;50.904;4.694;2023-02-28T16:07:38;6.70;99.90
8824;DHT22;4448;50.904;4.694;2023-02-28T16:10:06;6.60;99.90
8824;DHT22;4448;50.904;4.694;2023-02-28T16:12:34;6.60;99.90
8824;DHT22;4448;50.904;4.694;2023-02-28T16:15:06;6.50;99.90
8824;DHT22;4448;50.904;4.694;2023-02-28T16:17:37;6.50;99.90
8824;DHT22;4448;50.904;4.694;2023-02-28T16:20:17;6.50;99.90
8824;DHT22;4448;50.904;4.694;2023-02-28T16:22:43;6.50;99.90
8824;DHT22;4448;50.904;4.694;2023-02-28T16:25:20;6.50;99.90
8824;DHT22;4448;50.904;4.694;2023-02-28T16:27:48;6.50;99.90
8824;DHT22;4448;50.904;4.694;2023-02-28T16:30:24;6.40;99.90
8824;DHT22;4448;50.904;4.694;2023-02-28T16:32:52;6.50;99.90
8824;DHT22;4448;50.904;4.694;2023-02-28T16:35:19;6.40;99.90
8824;DHT22;4448;50.904;4.694;2023-02-28T16:37:45;6.40;99.90
8824;DHT22;4448;50.904;4.694;2023-02-28T16:40:15;6.40;99.90
8824;DHT22;4448;50.904;4.694;2023-02-28T16:42:42;6.40;99.90
8824;DHT22;4448;50.904;4.694;2023-02-28T16:45:26;6.40;99.90
8824;DHT22;4448;50.904;4.694;2023-02-28T16:47:52;6.30;99.90
8824;DHT22;4448;50.904;4.694;2023-02-28T16:50:20;6.30;99.90
8824;DHT22;4448;50.904;4.694;2023-02-28T16:52:47;6.30;99.90
8824;DHT22;4448;50.904;4.694;2023-02-28T16:55:15;6.20;99.90
8824;DHT22;4448;50.904;4.694;2023-02-28T16:57:41;6.20;99.90
8824;DHT22;4448;50.904;4.694;2023-02-28T17:00:12;6.20;99.90
8824;DHT22;4448;50.904;4.694;2023-02-28T17:02:38;6.20;99.90
8824;DHT22;4448;50.904;4.694;2023-02-28T17:05:05;6.20;99.90
8824;DHT22;4448;50.904;4.694;2023-02-28T17:07:32;6.10;99.90
8824;DHT22;4448;50.904;4.694;2023-02-28T17:09:58;6.10;99.90
8824;DHT22;4448;50.904;4.694;2023-02-28T17:12:24;6.10;99.90
8824;DHT22;4448;50.904;4.694;2023-02-28T17:14:50;6.10;99.90
8824;DHT22;4448;50.904;4.694;2023-02-28T17:17:19;6.10;99.90
8824;DHT22;4448;50.904;4.694;2023-02-28T17:19:46;6.00;99.90
8824;DHT22;4448;50.904;4.694;2023-02-28T17:22:12;6.00;99.90
8824;DHT22;4448;50.904;4.694;2023-02-28T17:24:37;6.00;99.90
8824;DHT22;4448;50.904;4.694;2023-02-28T17:27:03;6.00;99.90
8824;DHT22;4448;50.904;4.694;2023-02-28T17:29:29;6.00;99.90
8824;DHT22;4448;50.904;4.694;2023-02-28T17:31:55;5.90;99.90
8824;DHT22;4448;50.904;4.694;2023-02-28T17:34:21;5.90;99.90
8824;DHT22;4448;50.904;4.694;2023-02-28T17:36:49;5.90;99.90
8824;DHT22;4448;50.904;4.694;2023-02-28T17:39:16;5.90;99.90
8824;DHT22;4448;50.904;4.694;2023-02-28T17:41:47;5.90;99.90
8824;DHT22;4448;50.904;4.694;2023-02-28T17:44:12;5.80;99.90
8824;DHT22;4448;50.904;4.694;2023-02-28T17:46:38;5.80;99.90
8824;DHT22;4448;50.904;4.694;2023-02-28T17:49:05;5.80;99.90
8824;DHT22;4448;50.904;4.694;2023-02-28T17:51:30;5.80;99.90
8824;DHT22;4448;50.904;4.694;2023-02-28T17:53:56;5.70;99.90
8824;DHT22;4448;50.904;4.694;2023-02-28T17:56:24;5.70;99.90
8824;DHT22;4448;50.904;4.694;2023-02-28T17:58:54;5.70;99.90
8824;DHT22;4448;50.904;4.694;2023-02-28T18:01:21;5.70;99.90
8824;DHT22;4448;50.904;4.694;2023-02-28T18:03:47;5.70;99.90
8824;DHT22;4448;50.904;4.694;2023-02-28T18:06:16;5.60;99.90
8824;DHT22;4448;50.904;4.694;2023-02-28T18:08:44;5.60;99.90
8824;DHT22;4448;50.904;4.694;2023-02-28T18:11:10;5.60;99.90
8824;DHT22;4448;50.904;4.694;2023-02-28T18:13:44;5.60;99.90
8824;DHT22;4448;50.904;4.694;2023-02-28T18:16:10;5.60;99.90
8824;DHT22;4448;50.904;4.694;2023-02-28T18:18:35;5.40;99.90
8824;DHT22;4448;50.904;4.694;2023-02-28T18:21:04;5.50;99.90
8824;DHT22;4448;50.904;4.694;2023-02-28T18:23:31;5.50;99.90
8824;DHT22;4448;50.904;4.694;2023-02-28T18:25:56;5.40;99.90
8824;DHT22;4448;50.904;4.694;2023-02-28T18:28:23;5.50;99.90
8824;DHT22;4448;50.904;4.694;2023-02-28T18:30:49;5.40;99.90
8824;DHT22;4448;50.904;4.694;2023-02-28T18:33:14;5.40;99.90
8824;DHT22;4448;50.904;4.694;2023-02-28T18:35:40;5.40;99.90
8824;DHT22;4448;50.904;4.694;2023-02-28T18:38:17;5.30;99.90
8824;DHT22;4448;50.904;4.694;2023-02-28T18:40:58;5.30;99.90
8824;DHT22;4448;50.904;4.694;2023-02-28T18:43:29;5.30;99.90
8824;DHT22;4448;50.904;4.694;2023-02-28T18:45:55;5.30;99.90
8824;DHT22;4448;50.904;4.694;2023-02-28T18:48:21;5.20;99.90
8824;DHT22;4448;50.904;4.694;2023-02-28T18:50:50;5.20;99.90
8824;DHT22;4448;50.904;4.694;2023-02-28T18:53:17;5.20;99.90